sensor_id;sensor_type;location;lat;lon;timestamp;P1;durP1;ratioP1;P2;durP2;ratioP2
74933;SDS011;63499;53.232;7.492;2022-11-06T02:06:11;13.80;;;6.85;;
74933;SDS011;63499;53.232;7.492;2022-11-06T02:08:37;13.80;;;6.53;;
74933;SDS011;63499;53.232;7.492;2022-11-06T02:16:10;14.68;;;5.43;;
74933;SDS011;63499;53.232;7.492;2022-11-06T09:53:40;7.97;;;2.10;;
74933;SDS011;63499;53.232;7.492;2022-11-06T10:34:57;9.27;;;1.60;;
74933;SDS011;63499;53.232;7.492;2022-11-06T10:37:29;8.25;;;1.40;;
74933;SDS011;63499;53.232;7.492;2022-11-06T10:40:00;5.32;;;1.13;;
74933;SDS011;63499;53.232;7.492;2022-11-06T10:42:30;4.78;;;1.00;;
74933;SDS011;63499;53.232;7.492;2022-11-06T10:45:05;13.23;;;1.58;;
74933;SDS011;63499;53.232;7.492;2022-11-06T10:47:41;12.05;;;1.92;;
74933;SDS011;63499;53.232;7.492;2022-11-06T10:50:11;5.20;;;1.20;;
74933;SDS011;63499;53.232;7.492;2022-11-06T10:58:15;1.42;;;0.77;;
74933;SDS011;63499;53.232;7.492;2022-11-06T11:00:43;6.70;;;1.30;;
74933;SDS011;63499;53.232;7.492;2022-11-06T11:03:29;6.80;;;1.13;;
74933;SDS011;63499;53.232;7.492;2022-11-06T11:05:59;9.65;;;1.33;;
74933;SDS011;63499;53.232;7.492;2022-11-06T11:13:50;5.80;;;1.15;;
74933;SDS011;63499;53.232;7.492;2022-11-06T11:16:37;4.85;;;1.10;;
74933;SDS011;63499;53.232;7.492;2022-11-06T11:19:15;3.53;;;1.27;;
74933;SDS011;63499;53.232;7.492;2022-11-06T11:22:28;5.47;;;0.90;;
74933;SDS011;63499;53.232;7.492;2022-11-06T11:25:00;7.55;;;1.20;;
74933;SDS011;63499;53.232;7.492;2022-11-06T11:27:29;5.95;;;2.08;;
74933;SDS011;63499;53.232;7.492;2022-11-06T11:29:59;7.20;;;1.23;;
74933;SDS011;63499;53.232;7.492;2022-11-06T11:32:29;5.22;;;1.05;;
74933;SDS011;63499;53.232;7.492;2022-11-06T11:34:56;4.45;;;1.30;;
74933;SDS011;63499;53.232;7.492;2022-11-06T11:39:55;6.68;;;1.42;;
74933;SDS011;63499;53.232;7.492;2022-11-06T11:42:41;5.43;;;1.00;;
74933;SDS011;63499;53.232;7.492;2022-11-06T11:47:34;9.95;;;1.27;;
74933;SDS011;63499;53.232;7.492;2022-11-06T11:52:58;9.05;;;1.48;;
74933;SDS011;63499;53.232;7.492;2022-11-06T11:55:28;5.28;;;0.90;;
74933;SDS011;63499;53.232;7.492;2022-11-06T11:57:57;6.63;;;1.67;;
74933;SDS011;63499;53.232;7.492;2022-11-06T12:00:25;7.88;;;1.15;;
74933;SDS011;63499;53.232;7.492;2022-11-06T12:02:58;10.30;;;1.02;;
74933;SDS011;63499;53.232;7.492;2022-11-06T12:05:33;6.93;;;0.95;;
74933;SDS011;63499;53.232;7.492;2022-11-06T12:08:03;5.20;;;1.10;;
74933;SDS011;63499;53.232;7.492;2022-11-06T12:10:35;4.82;;;1.00;;
74933;SDS011;63499;53.232;7.492;2022-11-06T12:13:19;6.65;;;1.77;;
74933;SDS011;63499;53.232;7.492;2022-11-06T12:18:32;6.45;;;1.27;;
74933;SDS011;63499;53.232;7.492;2022-11-06T12:21:04;2.63;;;0.77;;
74933;SDS011;63499;53.232;7.492;2022-11-06T12:23:43;5.93;;;1.38;;
74933;SDS011;63499;53.232;7.492;2022-11-06T12:26:43;11.40;;;3.05;;
74933;SDS011;63499;53.232;7.492;2022-11-06T12:29:32;4.60;;;1.40;;
74933;SDS011;63499;53.232;7.492;2022-11-06T12:34:35;8.45;;;1.42;;
74933;SDS011;63499;53.232;7.492;2022-11-06T12:40:36;3.88;;;1.33;;
74933;SDS011;63499;53.232;7.492;2022-11-06T12:50:40;7.20;;;1.67;;
74933;SDS011;63499;53.232;7.492;2022-11-06T13:03:34;6.78;;;1.50;;
74933;SDS011;63499;53.232;7.492;2022-11-06T13:11:21;6.43;;;1.05;;
74933;SDS011;63499;53.232;7.492;2022-11-06T13:19:54;5.10;;;1.02;;
74933;SDS011;63499;53.232;7.492;2022-11-06T13:22:28;3.63;;;0.65;;
74933;SDS011;63499;53.232;7.492;2022-11-06T13:24:58;3.15;;;0.93;;
74933;SDS011;63499;53.232;7.492;2022-11-06T13:30:00;3.33;;;0.80;;
74933;SDS011;63499;53.232;7.492;2022-11-06T13:32:38;6.35;;;0.93;;
74933;SDS011;63499;53.232;7.492;2022-11-06T13:35:11;8.50;;;0.90;;
74933;SDS011;63499;53.232;7.492;2022-11-06T13:37:41;2.90;;;0.70;;
74933;SDS011;63499;53.232;7.492;2022-11-06T13:40:15;4.90;;;0.90;;
74933;SDS011;63499;53.232;7.492;2022-11-06T13:42:58;6.63;;;1.10;;
74933;SDS011;63499;53.232;7.492;2022-11-06T13:45:40;2.78;;;1.08;;
74933;SDS011;63499;53.232;7.492;2022-11-06T13:51:18;3.05;;;0.57;;
74933;SDS011;63499;53.232;7.492;2022-11-06T13:53:57;5.45;;;0.98;;
74933;SDS011;63499;53.232;7.492;2022-11-06T14:02:27;5.07;;;0.90;;
74933;SDS011;63499;53.232;7.492;2022-11-06T14:07:46;3.72;;;0.80;;
74933;SDS011;63499;53.232;7.492;2022-11-06T14:10:19;2.65;;;0.73;;
74933;SDS011;63499;53.232;7.492;2022-11-06T14:12:54;7.78;;;0.98;;
74933;SDS011;63499;53.232;7.492;2022-11-06T14:17:56;2.20;;;0.98;;
74933;SDS011;63499;53.232;7.492;2022-11-06T14:20:32;5.57;;;0.75;;
74933;SDS011;63499;53.232;7.492;2022-11-06T14:24:04;3.75;;;0.55;;
74933;SDS011;63499;53.232;7.492;2022-11-06T14:26:00;4.93;;;1.13;;
74933;SDS011;63499;53.232;7.492;2022-11-06T14:28:38;2.80;;;0.93;;
74933;SDS011;63499;53.232;7.492;2022-11-06T14:31:10;7.38;;;1.23;;
74933;SDS011;63499;53.232;7.492;2022-11-06T14:33:56;7.72;;;1.10;;
74933;SDS011;63499;53.232;7.492;2022-11-06T14:36:29;4.95;;;1.10;;
74933;SDS011;63499;53.232;7.492;2022-11-06T17:38:46;2.08;;;1.17;;
74933;SDS011;63499;53.232;7.492;2022-11-06T17:41:17;7.75;;;1.45;;
74933;SDS011;63499;53.232;7.492;2022-11-06T17:43:57;3.88;;;1.20;;
74933;SDS011;63499;53.232;7.492;2022-11-06T17:46:29;6.30;;;1.75;;
74933;SDS011;63499;53.232;7.492;2022-11-06T17:48:58;4.88;;;1.90;;
74933;SDS011;63499;53.232;7.492;2022-11-06T17:51:25;2.63;;;1.40;;
74933;SDS011;63499;53.232;7.492;2022-11-06T17:54:10;3.78;;;1.00;;
74933;SDS011;63499;53.232;7.492;2022-11-06T17:56:38;3.70;;;1.38;;
74933;SDS011;63499;53.232;7.492;2022-11-06T17:59:07;4.97;;;1.27;;
74933;SDS011;63499;53.232;7.492;2022-11-06T18:01:34;6.15;;;1.23;;
74933;SDS011;63499;53.232;7.492;2022-11-06T18:04:00;3.17;;;1.08;;
74933;SDS011;63499;53.232;7.492;2022-11-06T18:06:26;2.25;;;1.10;;
74933;SDS011;63499;53.232;7.492;2022-11-06T18:08:54;3.45;;;1.38;;
74933;SDS011;63499;53.232;7.492;2022-11-06T18:11:21;3.08;;;1.20;;
74933;SDS011;63499;53.232;7.492;2022-11-06T18:13:48;4.55;;;1.67;;
74933;SDS011;63499;53.232;7.492;2022-11-06T18:16:19;4.45;;;1.40;;
74933;SDS011;63499;53.232;7.492;2022-11-06T18:18:47;3.53;;;1.40;;
74933;SDS011;63499;53.232;7.492;2022-11-06T18:21:16;4.13;;;1.48;;
74933;SDS011;63499;53.232;7.492;2022-11-06T18:23:42;5.90;;;1.30;;
74933;SDS011;63499;53.232;7.492;2022-11-06T18:26:09;8.75;;;3.03;;
74933;SDS011;63499;53.232;7.492;2022-11-06T18:28:35;7.82;;;2.00;;
74933;SDS011;63499;53.232;7.492;2022-11-06T18:31:01;6.45;;;2.45;;
74933;SDS011;63499;53.232;7.492;2022-11-06T18:33:28;5.80;;;2.20;;
74933;SDS011;63499;53.232;7.492;2022-11-06T18:36:01;6.55;;;2.20;;
74933;SDS011;63499;53.232;7.492;2022-11-06T18:38:29;11.07;;;2.58;;
74933;SDS011;63499;53.232;7.492;2022-11-06T18:40:56;10.13;;;2.13;;
74933;SDS011;63499;53.232;7.492;2022-11-06T18:43:22;9.07;;;2.17;;
74933;SDS011;63499;53.232;7.492;2022-11-06T18:45:49;5.30;;;2.25;;
74933;SDS011;63499;53.232;7.492;2022-11-06T18:48:16;6.05;;;2.03;;
74933;SDS011;63499;53.232;7.492;2022-11-06T18:50:42;5.38;;;2.05;;
74933;SDS011;63499;53.232;7.492;2022-11-06T23:38:43;7.10;;;3.58;;
74933;SDS011;63499;53.232;7.492;2022-11-06T23:41:14;7.53;;;3.75;;
74933;SDS011;63499;53.232;7.492;2022-11-06T23:44:00;5.82;;;3.15;;
74933;SDS011;63499;53.232;7.492;2022-11-06T23:46:29;7.25;;;3.05;;
74933;SDS011;63499;53.232;7.492;2022-11-06T23:48:58;13.73;;;3.50;;
74933;SDS011;63499;53.232;7.492;2022-11-06T23:51:25;13.80;;;3.25;;
74933;SDS011;63499;53.232;7.492;2022-11-06T23:53:53;7.82;;;3.20;;
74933;SDS011;63499;53.232;7.492;2022-11-06T23:56:20;6.15;;;3.47;;
74933;SDS011;63499;53.232;7.492;2022-11-06T23:58:47;7.75;;;3.30;;
